Aviation Digital Data Service (ADDS)

Output produced by METARs form (0241 UTC 25 August 2016)
found at http://aviationweather.gov/adds/metars/
 
KEWN 242321Z 2500/2524 02007KT P6SM BKN050 
     FM250300 VRB03KT P6SM FEW250 
     FM250800 00000KT 4SM BR SKC 
     FM251500 11006KT P6SM SCT050